Coolangatta, Queensland

2:59 AM EST on August 23, 2014 (GMT +1000)
Coolangatta | Change Station
CLOSE
Current Station
Airport
Location: Coolangatta,
Elevation: 20 ft
Nearby Weather Stations

Elev 20 ft 28.17 °S, 153.51 °E | Updated 29 minutes ago

Overcast
Overcast
59 °F
Feels Like 59 °F
N
9
Wind Variable Wind from SSW

Today
High -- | Low -- °F
--% Chance of Precip.
Yesterday
High -- | Low -- °F
Precip. -- in
6:10 AM 5:27 PM
Waning Crescent, 7% visible
Pressure 30.21 in
Visibility 6.2 miles
Clouds Mostly Cloudy 6600 ft
Mostly Cloudy 7600 ft
Overcast 10000 ft
Dew Point 55 °F
Humidity 88%
Rainfall 0.00 in
Snow Depth Not available.
UV 0 out of 12
Pollen Not available.
Air Quality Not available.
Flu Activity Not available.
METAR YBCG 221630Z AUTO 20008KT 9999 // BKN066 BKN076 OVC100 15/13 Q1023

More Conditions Fewer Conditions

Pressure 30.21 in
Visibility 6.2 miles
Clouds Mostly Cloudy 6600 ft
Mostly Cloudy 7600 ft
Overcast 10000 ft
Dew Point 55 °F
Humidity 88%
Rainfall 0.00 in
Snow Depth Not available.
UV 0 out of 12
Pollen Not available.
Air Quality Not available.
Flu Activity Not available.
METAR YBCG 221630Z AUTO 20008KT 9999 // BKN066 BKN076 OVC100 15/13 Q1023

More Conditions Fewer Conditions

10-Day Weather Forecast

Almanac

Astronomy

Aug. 23, 2014 Rise Set
Actual Time 6:10 AM EST 5:27 PM EST
Civil Twilight 5:46 AM EST 5:51 PM EST
Nautical Twilight 5:18 AM EST 6:19 PM EST
Astronomical Twilight 4:51 AM EST 6:46 PM EST
Moon 4:15 AM EST (8/23) 3:29 PM EST (8/23)
Length of Visible Light 12h 05m
Length of Day
11h 17m
Tomorrow will be 1m 30s longer.
Waning Crescent, 7% of the Moon is Illuminated
Aug 22
Waning Crescent
Aug 25
New
Sep 2
First Quarter
Sep 8
Full
Sep 15
Last Quarter

Yesterday's Extremes

Country Highs Country Lows

Community

WunderPhotos

Upload Photos

1,746,197 photos uploaded!

Nearby

Snow Depth

Not available.

Earthquake Activity

City Distance Mag. Time & Date
No recent earthquake activity has been reported nearby.
Minimum magnitude displayed is 2.5.

Coastal Water Temperatures

Place Temperature
No Stations Reporting

Nearby Weather Stations